.
WxDataArchive / Data Records for 2014-04-12
2014-04-11 April 2014 2014-04-13

Data Records for Saturday, 12 April 2014

Time	Temp	Chill	HIndex	Humid	Dewpt	 Wind 	HiWind	WindDir	Rain 	Barom
-----	----	-----	------	-----	-----	------	------	-------	-----	-----
00:00	49.2	49.2	49.2	56	34.2	0	0	---	0.00	30.027 
00:05	49.5	49.5	49.5	56	34.5	0	0	---	0.00	30.027 
00:10	49.8	49.8	49.8	55	34.3	0	0	---	0.00	30.027 
00:15	50.1	50.1	50.1	55	34.6	0	0	---	0.00	30.021 
00:20	50.1	50.1	50.1	55	34.6	0	0	---	0.00	30.021 
00:25	50.1	50.1	50.1	55	34.6	0	0	---	0.00	30.021 
00:30	50.1	50.1	50.1	55	34.6	0	0	---	0.00	30.026 
00:35	50.1	50.1	50.1	55	34.6	0	1	248	0.00	30.026 
00:40	50.4	50.4	50.4	54	34.4	0	1	248	0.00	30.026 
00:45	50.7	50.7	50.7	54	34.7	0	1	248	0.00	30.029 
00:50	51.1	51.1	51.1	53	34.6	0	1	248	0.00	30.029 
00:55	51.3	51.3	51.3	53	34.8	0	1	248	0.00	30.029 
01:00	51.4	51.4	51.4	52	34.4	0	1	248	0.00	30.031 
01:05	51.6	51.6	51.6	52	34.6	0	1	248	0.00	30.031 
01:10	51.7	51.7	51.7	52	34.6	0	0	---	0.00	30.031 
01:15	51.7	51.7	51.7	52	34.6	0	0	---	0.00	30.034 
01:20	51.7	51.7	51.7	52	34.6	0	0	---	0.00	30.034 
01:25	51.6	51.6	51.6	51	34.1	0	0	---	0.00	30.034 
01:30	51.4	51.4	51.4	52	34.4	0	1	248	0.00	30.030 
01:35	51.4	51.4	51.4	52	34.4	0	0	---	0.00	30.030 
01:40	51.3	51.3	51.3	52	34.3	0	0	---	0.00	30.030 
01:45	51.3	51.3	51.3	53	34.8	0	1	248	0.00	30.030 
01:50	51.1	51.1	51.1	52	34.1	0	1	248	0.00	30.030 
01:55	51.3	51.3	51.3	52	34.3	0	1	248	0.00	30.030 
02:00	51.4	51.4	51.4	52	34.4	0	1	248	0.00	30.034 
02:05	51.6	51.6	51.6	53	35.0	0	1	248	0.00	30.034 
02:10	51.6	51.6	51.6	52	34.6	0	1	248	0.00	30.034 
02:15	51.4	51.4	51.4	53	34.8	0	1	248	0.00	30.040 
02:20	51.4	51.4	51.4	53	34.8	0	0	---	0.00	30.040 
02:25	51.3	51.3	51.3	53	34.8	0	0	---	0.00	30.040 
02:30	51.1	51.1	51.1	53	34.6	0	1	248	0.00	30.040 
02:35	51.3	51.3	51.3	53	34.8	0	1	248	0.00	30.040 
02:40	51.3	51.3	51.3	53	34.8	0	1	248	0.00	30.040 
02:45	51.4	51.4	51.4	53	34.8	0	1	248	0.00	30.043 
02:50	51.7	51.7	51.7	52	34.6	0	2	248	0.00	30.043 
02:55	51.9	51.9	51.9	52	34.8	0	1	248	0.00	30.043 
03:00	51.9	51.9	51.9	53	35.3	0	1	248	0.00	30.048 
03:05	51.9	51.9	51.9	53	35.3	0	1	248	0.00	30.048 
03:10	51.9	51.9	51.9	53	35.3	0	1	248	0.00	30.048 
03:15	51.9	51.9	51.9	53	35.3	0	1	248	0.00	30.047 
03:20	51.7	51.7	51.7	53	35.1	0	1	248	0.00	30.047 
03:25	51.7	51.7	51.7	52	34.6	0	2	248	0.00	30.047 
03:30	51.7	51.7	51.7	53	35.1	0	1	248	0.00	30.051 
03:35	51.7	51.7	51.7	53	35.1	0	1	248	0.00	30.051 
03:40	51.7	51.7	51.7	53	35.1	0	1	248	0.00	30.051 
03:45	51.6	51.6	51.6	53	35.0	0	1	248	0.00	30.052 
03:50	51.6	51.6	51.6	53	35.0	0	1	248	0.00	30.052 
03:55	51.6	51.6	51.6	53	35.0	0	1	248	0.00	30.052 
04:00	51.4	51.4	51.4	54	35.3	0	1	248	0.00	30.052 
04:05	51.4	51.4	51.4	54	35.3	0	1	248	0.00	30.052 
04:10	51.3	51.3	51.3	54	35.2	0	1	248	0.00	30.052 
04:15	51.1	51.1	51.1	54	35.0	0	2	248	0.00	30.053 
04:20	51.1	51.1	51.1	54	35.0	0	1	248	0.00	30.053 
04:25	50.8	50.8	50.8	54	34.8	0	0	---	0.00	30.053 
04:30	50.8	50.8	50.8	54	34.8	0	1	248	0.00	30.055 
04:35	50.8	50.8	50.8	54	34.8	0	1	248	0.00	30.055 
04:40	50.8	50.8	50.8	55	35.2	0	1	248	0.00	30.055 
04:45	50.8	50.8	50.8	54	34.8	0	1	248	0.00	30.055 
04:50	50.8	50.8	50.8	54	34.8	0	1	248	0.00	30.055 
04:55	50.7	50.7	50.7	54	34.7	0	0	---	0.00	30.055 
05:00	50.7	50.7	50.7	54	34.7	0	1	248	0.00	30.057 
05:05	50.5	50.5	50.5	54	34.5	0	0	---	0.00	30.057 
05:10	50.4	50.4	50.4	54	34.4	0	0	---	0.00	30.057 
05:15	50.2	50.2	50.2	54	34.2	0	0	---	0.00	30.056 
05:20	49.8	49.8	49.8	54	33.8	0	0	---	0.00	30.056 
05:25	49.5	49.5	49.5	55	34.0	0	0	---	0.00	30.056 
05:30	49.1	49.1	49.1	57	34.5	0	0	---	0.00	30.058 
05:35	48.6	48.6	48.6	58	34.5	0	0	---	0.00	30.058 
05:40	48.0	48.0	48.0	59	34.4	0	0	---	0.00	30.058 
05:45	47.4	47.4	47.4	60	34.2	0	0	---	0.00	30.056 
05:50	46.8	46.8	46.8	61	34.1	0	0	---	0.00	30.056 
05:55	46.4	46.4	46.4	62	34.1	0	0	---	0.00	30.056 
06:00	46.0	46.0	46.0	62	33.7	0	0	---	0.00	30.054 
06:05	45.7	45.7	45.7	63	33.8	0	0	---	0.00	30.054 
06:10	45.2	45.2	45.2	64	33.8	0	0	---	0.00	30.054 
06:15	44.9	44.9	44.9	64	33.5	0	0	---	0.00	30.055 
06:20	44.6	44.6	44.6	65	33.6	0	0	---	0.00	30.055 
06:25	44.2	44.2	44.2	65	33.2	0	0	---	0.00	30.055 
06:30	43.9	43.9	43.9	67	33.7	0	0	---	0.00	30.051 
06:35	43.6	43.6	43.6	68	33.7	0	0	---	0.00	30.051 
06:40	43.3	43.3	43.3	69	33.8	0	0	---	0.00	30.051 
06:45	43.1	43.1	43.1	69	33.6	0	0	---	0.00	30.059 
06:50	42.8	42.8	42.8	70	33.7	0	0	---	0.00	30.059 
06:55	42.5	42.5	42.5	71	33.8	0	0	---	0.00	30.059 
07:00	42.3	42.3	42.3	73	34.3	0	0	---	0.00	30.061 
07:05	42.2	42.2	42.2	75	34.9	0	1	248	0.00	30.061 
07:10	42.3	42.3	42.3	75	35.0	0	0	---	0.00	30.061 
07:15	42.5	42.5	42.5	75	35.1	0	0	---	0.00	30.071 
07:20	42.8	42.8	42.8	74	35.1	0	0	---	0.00	30.071 
07:25	43.2	43.2	43.2	73	35.1	0	0	---	0.00	30.071 
07:30	43.6	43.6	43.6	71	34.8	0	0	---	0.00	30.077 
07:35	44.3	44.3	44.3	69	34.8	0	1	248	0.00	30.077 
07:40	44.9	44.9	44.9	66	34.2	0	0	---	0.00	30.077 
07:45	45.8	45.8	45.8	65	34.7	0	1	248	0.00	30.071 
07:50	46.7	46.7	46.7	63	34.8	0	2	248	0.00	30.071 
07:55	48.0	48.0	48.0	59	34.4	0	1	248	0.00	30.071 
08:00	49.1	49.1	49.1	58	35.0	0	1	248	0.00	30.063 
08:05	50.1	50.1	50.1	56	35.0	0	2	248	0.00	30.063 
08:10	50.8	50.8	50.8	55	35.2	0	2	248	0.00	30.063 
08:15	51.3	51.3	51.3	54	35.2	0	1	248	0.00	30.071 
08:20	52.0	52.0	52.0	53	35.4	0	2	248	0.00	30.071 
08:25	52.8	52.8	52.8	52	35.7	0	2	248	0.00	30.071 
08:30	53.5	53.5	53.5	51	35.8	0	1	248	0.00	30.063 
08:35	54.2	54.2	54.2	50	36.0	0	1	248	0.00	30.063 
08:40	54.8	54.8	54.8	50	36.5	0	1	248	0.00	30.063 
08:45	55.4	55.4	55.4	47	35.5	0	3	248	0.00	30.063 
08:50	55.9	55.9	55.9	46	35.4	0	2	248	0.00	30.063 
08:55	56.3	56.3	56.3	45	35.2	0	2	248	0.00	30.063 
09:00	56.5	56.5	56.5	46	36.0	1	4	248	0.00	30.058 
09:05	56.6	56.6	56.6	45	35.5	1	5	68	0.00	30.058 
09:10	56.9	56.9	56.9	45	35.8	1	5	90	0.00	30.058 
09:15	57.3	57.3	57.3	44	35.6	1	3	90	0.00	30.061 
09:20	57.3	57.3	57.3	44	35.6	1	5	68	0.00	30.061 
09:25	57.5	57.5	57.5	45	36.3	0	3	248	0.00	30.061 
09:30	57.6	57.6	57.6	44	35.8	1	3	248	0.00	30.061 
09:35	58.1	58.1	58.1	46	37.4	0	2	158	0.00	30.061 
09:40	59.0	59.0	59.0	44	37.1	0	2	158	0.00	30.061 
09:45	59.5	59.5	59.5	43	37.0	0	2	158	0.00	30.056 
09:50	59.9	59.9	59.9	43	37.3	1	3	158	0.00	30.056 
09:55	60.7	60.7	60.7	41	36.9	1	9	90	0.00	30.056 
10:00	61.3	61.3	61.3	41	37.4	2	5	90	0.00	30.056 
10:05	62.0	62.0	62.0	41	38.0	1	4	0	0.00	30.056 
10:10	62.3	62.3	62.3	38	36.4	2	8	112	0.00	30.056 
10:15	62.6	62.6	62.6	42	39.2	1	3	112	0.00	30.050 
10:20	63.2	63.2	63.2	38	37.2	2	5	338	0.00	30.050 
10:25	63.9	63.9	63.9	34	35.0	3	7	90	0.00	30.050 
10:30	63.9	63.9	63.9	35	35.7	3	9	90	0.00	30.053 
10:35	64.0	64.0	64.0	38	37.9	2	6	68	0.00	30.053 
10:40	64.2	64.2	64.2	36	36.7	2	4	68	0.00	30.053 
10:45	64.0	64.0	64.0	38	37.9	2	6	90	0.00	30.046 
10:50	63.7	63.7	63.7	35	35.5	2	7	90	0.00	30.046 
10:55	63.5	63.5	63.5	36	36.1	1	4	45	0.00	30.046 
11:00	63.9	63.9	63.9	38	37.8	1	5	135	0.00	30.043 
11:05	64.8	64.8	64.8	35	36.5	3	7	90	0.00	30.043 
11:10	65.3	65.3	65.3	37	38.4	3	10	90	0.00	30.043 
11:15	65.5	65.5	65.5	35	37.1	4	10	90	0.00	30.035 
11:20	65.8	65.8	65.8	36	38.1	3	7	90	0.00	30.035 
11:25	65.3	65.3	65.3	36	37.7	4	10	90	0.00	30.035 
11:30	64.8	64.8	64.8	39	39.3	3	9	90	0.00	30.031 
11:35	65.2	65.2	65.2	39	39.6	3	9	90	0.00	30.031 
11:40	65.3	65.3	65.3	40	40.4	2	9	90	0.00	30.031 
11:45	66.0	66.0	66.0	41	41.6	2	9	135	0.00	30.019 
11:50	66.6	66.6	66.6	37	39.5	5	12	112	0.00	30.019 
11:55	67.3	67.3	67.3	36	39.4	4	9	90	0.00	30.019 
12:00	67.4	67.4	67.4	36	39.5	3	9	90	0.00	30.012 
12:05	67.8	67.8	67.8	36	39.9	4	11	90	0.00	30.012 
12:10	68.1	68.1	68.1	37	40.8	4	11	90	0.00	30.012 
12:15	68.8	68.8	68.8	35	40.0	3	7	90	0.00	30.004 
12:20	69.3	69.3	69.3	36	41.2	3	7	90	0.00	30.004 
12:25	69.1	69.1	69.1	37	41.7	3	10	112	0.00	30.004 
12:30	69.4	69.4	69.4	36	41.3	4	10	90	0.00	29.992 
12:35	69.9	69.9	69.9	35	41.0	2	6	68	0.00	29.992 
12:40	69.3	69.3	69.3	35	40.5	5	13	90	0.00	29.992 
12:45	69.4	69.4	69.4	37	42.0	3	7	45	0.00	29.991 
12:50	69.9	69.9	69.9	38	43.1	3	12	90	0.00	29.991 
12:55	70.3	70.3	70.3	37	42.8	2	10	248	0.00	29.991 
13:00	70.3	70.3	70.3	39	44.2	3	10	68	0.00	29.983 
13:05	70.4	70.4	70.4	39	44.2	4	11	90	0.00	29.983 
13:10	70.8	70.8	70.8	41	45.9	3	7	90	0.00	29.983 
13:15	71.1	71.1	71.1	38	44.2	3	10	90	0.00	29.967 
13:20	71.1	71.1	71.1	39	44.9	3	7	68	0.00	29.967 
13:25	70.6	70.6	70.6	40	45.1	2	9	68	0.00	29.967 
13:30	70.1	70.1	70.1	44	47.2	4	11	90	0.00	29.959 
13:35	70.1	70.1	70.1	45	47.8	3	7	90	0.00	29.959 
13:40	70.1	70.1	70.1	46	48.3	3	7	248	0.00	29.959 
13:45	70.4	70.4	70.4	46	48.6	3	6	112	0.00	29.951 
13:50	70.9	70.9	70.9	46	49.1	3	10	112	0.00	29.951 
13:55	71.5	71.5	71.5	46	49.6	3	11	112	0.00	29.951 
14:00	71.8	71.8	71.8	48	51.0	4	13	90	0.00	29.938 
14:05	72.3	72.3	72.3	45	49.8	2	6	90	0.00	29.938 
14:10	72.7	72.7	72.7	44	49.5	3	10	90	0.00	29.938 
14:15	72.7	72.7	72.7	46	50.7	4	11	90	0.00	29.922 
14:20	72.8	72.8	72.8	47	51.4	2	7	248	0.00	29.922 
14:25	73.0	73.0	73.0	47	51.6	2	10	315	0.00	29.922 
14:30	73.5	73.5	73.5	46	51.4	1	11	90	0.00	29.909 
14:35	73.9	73.9	73.9	46	51.8	2	8	90	0.00	29.909 
14:40	73.9	73.9	73.9	46	51.8	2	7	68	0.00	29.909 
14:45	73.5	73.5	73.5	47	52.0	2	6	248	0.00	29.905 
14:50	73.3	73.3	73.3	47	51.8	3	9	90	0.00	29.905 
14:55	73.0	73.0	73.0	50	53.2	3	11	90	0.00	29.905 
15:00	72.8	72.8	72.8	47	51.4	3	9	270	0.00	29.902 
15:05	72.5	72.5	72.5	49	52.2	2	9	248	0.00	29.902 
15:10	72.8	72.8	72.8	49	52.5	2	6	112	0.00	29.902 
15:15	72.8	72.8	72.8	47	51.4	3	10	68	0.00	29.894 
15:20	73.2	73.2	73.2	49	52.9	2	6	248	0.00	29.894 
15:25	73.5	73.5	73.5	46	51.4	3	7	90	0.00	29.894 
15:30	73.9	73.9	73.9	50	54.1	2	6	248	0.00	29.889 
15:35	74.4	74.4	74.4	46	52.3	2	10	0	0.00	29.889 
15:40	74.4	74.4	74.4	47	52.8	2	10	90	0.00	29.889 
15:45	74.6	74.6	74.6	44	51.2	3	9	248	0.00	29.875 
15:50	75.1	75.1	77.6	45	52.3	2	6	248	0.00	29.875 
15:55	75.3	75.3	77.7	44	51.9	3	18	270	0.00	29.875 
16:00	75.4	75.4	77.7	44	52.0	2	7	45	0.00	29.869 
16:05	75.8	75.8	77.9	44	52.3	2	5	292	0.00	29.869 
16:10	75.6	75.6	77.8	43	51.5	2	9	68	0.00	29.869 
16:15	75.1	75.1	77.6	43	51.1	3	8	112	0.00	29.858 
16:20	74.6	74.6	74.6	42	50.0	2	6	248	0.00	29.858 
16:25	74.6	74.6	74.6	42	50.0	3	10	248	0.00	29.858 
16:30	74.4	74.4	74.4	42	49.8	2	9	248	0.00	29.855 
16:35	74.2	74.2	74.2	44	50.9	2	6	68	0.00	29.855 
16:40	74.0	74.0	74.0	45	51.3	2	9	45	0.00	29.855 
16:45	74.2	74.2	74.2	45	51.5	2	6	292	0.00	29.846 
16:50	74.4	74.4	74.4	43	50.4	3	9	248	0.00	29.846 
16:55	73.9	73.9	73.9	44	50.6	3	13	315	0.00	29.846 
17:00	73.7	73.7	73.7	45	51.0	2	7	248	0.00	29.841 
17:05	73.7	73.7	73.7	46	51.6	2	7	248	0.00	29.841 
17:10	73.7	73.7	73.7	46	51.6	2	7	248	0.00	29.841 
17:15	73.7	73.7	73.7	45	51.0	2	6	248	0.00	29.837 
17:20	73.7	73.7	73.7	46	51.6	1	3	248	0.00	29.837 
17:25	74.0	74.0	74.0	46	51.9	2	7	270	0.00	29.837 
17:30	74.7	74.7	74.7	44	51.3	4	11	90	0.00	29.830 
17:35	75.1	75.1	77.6	45	52.3	3	11	270	0.00	29.830 
17:40	75.1	75.1	77.6	45	52.3	3	7	68	0.00	29.830 
17:45	75.4	75.4	77.7	45	52.6	2	7	112	0.00	29.821 
17:50	75.3	75.3	77.7	45	52.5	3	9	90	0.00	29.821 
17:55	75.3	75.3	77.7	45	52.5	3	8	90	0.00	29.821 
18:00	75.1	75.1	77.6	45	52.3	2	10	68	0.00	29.814 
18:05	74.7	74.7	74.7	45	51.9	3	7	90	0.00	29.814 
18:10	74.6	74.6	74.6	45	51.8	2	10	68	0.00	29.814 
18:15	74.4	74.4	74.4	45	51.7	3	9	90	0.00	29.812 
18:20	74.2	74.2	74.2	47	52.7	2	5	90	0.00	29.812 
18:25	74.4	74.4	74.4	46	52.3	2	6	248	0.00	29.812 
18:30	74.6	74.6	74.6	46	52.4	1	4	45	0.00	29.805 
18:35	74.7	74.7	74.7	44	51.3	2	9	248	0.00	29.805 
18:40	74.7	74.7	74.7	44	51.3	2	6	248	0.00	29.805 
18:45	74.7	74.7	74.7	44	51.3	2	6	248	0.00	29.803 
18:50	74.6	74.6	74.6	44	51.2	2	6	45	0.00	29.803 
18:55	74.6	74.6	74.6	44	51.2	2	7	248	0.00	29.803 
19:00	74.4	74.4	74.4	45	51.7	1	4	270	0.00	29.802 
19:05	74.2	74.2	74.2	45	51.5	1	4	45	0.00	29.802 
19:10	74.0	74.0	74.0	45	51.3	2	10	270	0.00	29.802 
19:15	74.0	74.0	74.0	45	51.3	2	7	90	0.00	29.797 
19:20	73.9	73.9	73.9	45	51.2	2	6	68	0.00	29.797 
19:25	73.5	73.5	73.5	45	50.8	1	5	248	0.00	29.797 
19:30	73.3	73.3	73.3	45	50.7	2	6	248	0.00	29.786 
19:35	73.2	73.2	73.2	46	51.2	1	4	270	0.00	29.786 
19:40	73.0	73.0	73.0	46	51.0	2	5	270	0.00	29.786 
19:45	72.8	72.8	72.8	46	50.8	2	6	248	0.00	29.784 
19:50	72.5	72.5	72.5	46	50.5	1	5	248	0.00	29.784 
19:55	72.5	72.5	72.5	47	51.1	1	11	270	0.00	29.784 
20:00	72.3	72.3	72.3	47	50.9	1	6	68	0.00	29.786 
20:05	72.1	72.1	72.1	47	50.7	1	6	45	0.00	29.786 
20:10	72.0	72.0	72.0	48	51.2	1	6	248	0.00	29.786 
20:15	71.6	71.6	71.6	48	50.9	0	2	270	0.00	29.778 
20:20	71.3	71.3	71.3	48	50.6	1	6	90	0.00	29.778 
20:25	71.3	71.3	71.3	48	50.6	1	6	45	0.00	29.778 
20:30	71.3	71.3	71.3	48	50.6	1	7	248	0.00	29.778 
20:35	71.1	71.1	71.1	48	50.4	1	4	292	0.00	29.778 
20:40	70.9	70.9	70.9	49	50.8	1	4	225	0.00	29.778 
20:45	70.8	70.8	70.8	49	50.7	1	4	68	0.00	29.777 
20:50	70.6	70.6	70.6	49	50.5	1	5	248	0.00	29.777 
20:55	70.4	70.4	70.4	49	50.3	1	4	315	0.00	29.777 
21:00	70.3	70.3	70.3	50	50.8	1	5	248	0.00	29.780 
21:05	70.3	70.3	70.3	50	50.8	1	7	45	0.00	29.780 
21:10	70.1	70.1	70.1	50	50.6	0	3	248	0.00	29.780 
21:15	69.8	69.8	69.8	50	50.3	1	4	68	0.00	29.786 
21:20	69.4	69.4	69.4	51	50.5	0	1	68	0.00	29.786 
21:25	69.1	69.1	69.1	51	50.2	0	2	68	0.00	29.786 
21:30	68.8	68.8	68.8	52	50.4	0	2	68	0.00	29.796 
21:35	68.6	68.6	68.6	52	50.3	0	1	68	0.00	29.796 
21:40	68.3	68.3	68.3	53	50.5	0	1	68	0.00	29.796 
21:45	67.9	67.9	67.9	53	50.1	0	1	68	0.00	29.809 
21:50	67.9	67.9	67.9	54	50.6	0	3	112	0.00	29.809 
21:55	67.8	67.8	67.8	54	50.5	0	1	112	0.00	29.809 
22:00	67.6	67.6	67.6	54	50.4	0	1	112	0.00	29.811 
22:05	67.6	67.6	67.6	54	50.4	0	1	112	0.00	29.811 
22:10	67.4	67.4	67.4	54	50.2	0	0	---	0.00	29.811 
22:15	67.3	67.3	67.3	54	50.1	0	0	---	0.00	29.808 
22:20	66.9	66.9	66.9	55	50.2	0	0	---	0.00	29.808 
22:25	66.6	66.6	66.6	56	50.4	0	0	---	0.00	29.808 
22:30	66.1	66.1	66.1	56	49.9	0	0	---	0.00	29.808 
22:35	65.8	65.8	65.8	57	50.1	0	0	---	0.00	29.808 
22:40	65.3	65.3	65.3	58	50.1	0	0	---	0.00	29.808 
22:45	64.7	64.7	64.7	59	50.0	0	0	---	0.00	29.810 
22:50	64.2	64.2	64.2	60	50.0	0	0	---	0.00	29.810 
22:55	63.5	63.5	63.5	61	49.8	0	0	---	0.00	29.810 
23:00	63.1	63.1	63.1	62	49.9	0	0	---	0.00	29.811 
23:05	62.6	62.6	62.6	63	49.8	0	0	---	0.00	29.811 
23:10	62.1	62.1	62.1	64	49.8	0	0	---	0.00	29.811 
23:15	61.8	61.8	61.8	65	49.9	0	0	---	0.00	29.808 
23:20	61.5	61.5	61.5	66	50.0	0	0	---	0.00	29.808 
23:25	61.3	61.3	61.3	67	50.2	0	0	---	0.00	29.808 
23:30	61.5	61.5	61.5	68	50.8	0	0	---	0.00	29.803 
23:35	62.1	62.1	62.1	66	50.6	0	1	112	0.00	29.803 
23:40	62.7	62.7	62.7	65	50.8	0	1	112	0.00	29.803 
23:45	63.1	63.1	63.1	65	51.1	0	1	112	0.00	29.794 
23:50	63.1	63.1	63.1	65	51.1	0	0	---	0.00	29.794 
23:55	63.1	63.1	63.1	65	51.1	0	1	112	0.00	29.794 

CoCoRaHS
IN-AL-39
A2 Web Hosting
Creative Commons License
GoDaddy
search engine by freefind advanced

loaded 2018-11-15 05:35:05 • last modified 2010-11-18 10:43:29
Privacy PolicyDisclaimer
• wx.awcolley.com is powered by PmWiki v.2002016 •
• all content (unless otherwise noted) © 2018 A W Colley